Utsunomiya, Japan
Current Conditions -  °F | °C
As of 10:00 AM on Sunday 23 Nov 2014 (Local Time) from RJAH Reporting Station
Few Clouds Few Clouds  
Wind Chill: 59°   Ceiling: Unl
Heat Index: 59°   Visibility: 6mi
Dew Point: 43°   Wind: 9mph
Humidity: 55%   Direction: 20°NNE
Pressure: 30.15"   Gusts: NA
Location:  36.56°N, 139.89°E
Report Text: RJAH 230100Z 02008KT 9999 FEW030 15/06 Q1021
Loading
Personal Weather Stations






























Interactive Weather Map New forecast layout! Learn more

10-Day Weather Forecast

Advertisements
Track Severe Weather on mobile